Time;durP1;ratioP1;P1;durP2;ratioP2;P2;SDS_P1;SDS_P2;PMS_P1;PMS_P2;Temp;Humidity;BMP_temperature;BMP_pressure;BME280_temperature;BME280_humidity;BME280_pressure;Samples;Min_cycle;Max_cycle;Signal;HPM_P1;HPM_P2
2022/07/22 00:03:11;;;;;;;4.32;1.27;;;;;;;18.11;87.82;101669.88;20833797;28;20049;-59
2022/07/22 00:13:33;;;;;;;9.95;1.40;;;;;;;18.03;89.51;101678.41;20833525;28;20498;-59
2022/07/22 00:23:54;;;;;;;5.63;1.60;;;;;;;17.96;87.29;101679.03;20831527;28;20064;-59
2022/07/22 00:34:16;;;;;;;4.63;1.23;;;;;;;17.82;91.84;101692.50;20835295;28;20046;-59
2022/07/22 00:44:38;;;;;;;7.00;1.33;;;;;;;17.83;93.56;101688.91;20835306;28;20063;-59
2022/07/22 00:55:02;;;;;;;2.65;0.88;;;;;;;17.83;89.37;101689.75;20843775;28;20044;-59
2022/07/22 01:05:23;;;;;;;3.28;0.98;;;;;;;17.76;88.85;101706.19;20848568;28;20045;-59
2022/07/22 01:15:45;;;;;;;4.38;1.08;;;;;;;17.73;87.73;101704.63;20849425;28;20372;-59
2022/07/22 01:26:07;;;;;;;2.67;1.08;;;;;;;17.60;86.96;101711.03;20849511;28;20045;-59
2022/07/22 01:36:29;;;;;;;2.53;1.00;;;;;;;17.53;89.06;101704.56;20854061;28;20045;-59
2022/07/22 01:46:50;;;;;;;3.10;1.00;;;;;;;17.59;89.93;101707.53;20854019;28;20049;-59
2022/07/22 01:57:12;;;;;;;5.25;1.60;;;;;;;17.62;90.55;101715.22;20849848;28;20423;-59
2022/07/22 02:07:33;;;;;;;2.83;1.33;;;;;;;17.61;88.07;101715.34;20847105;28;20053;-60
2022/07/22 02:17:55;;;;;;;6.95;1.60;;;;;;;17.46;90.47;101711.28;20845068;28;20052;-60
2022/07/22 02:28:17;;;;;;;8.70;1.40;;;;;;;17.36;90.61;101715.59;20851628;28;20043;-59
2022/07/22 02:38:38;;;;;;;7.43;1.40;;;;;;;17.43;91.15;101716.78;20845583;28;20041;-60
2022/07/22 02:49:01;;;;;;;5.13;1.20;;;;;;;17.43;90.05;101714.16;20840750;28;20045;-59
2022/07/22 02:59:22;;;;;;;4.38;1.27;;;;;;;17.34;89.81;101712.22;20844647;28;20164;-59
2022/07/22 03:09:45;;;;;;;5.53;1.42;;;;;;;17.30;88.29;101723.13;20852895;28;20053;-60
2022/07/22 03:20:09;;;;;;;10.90;1.38;;;;;;;17.25;89.14;101735.78;20846519;28;20485;-59
2022/07/22 03:30:31;;;;;;;7.55;1.55;;;;;;;17.26;87.02;101737.47;20842822;28;20053;-60
2022/07/22 03:40:55;;;;;;;6.65;1.33;;;;;;;17.23;86.94;101738.56;20848792;28;20099;-60
2022/07/22 03:51:17;;;;;;;12.02;1.58;;;;;;;17.19;88.68;101742.38;20837660;28;20051;-60
2022/07/22 04:01:38;;;;;;;5.50;1.30;;;;;;;17.15;87.19;101742.75;20842898;28;20037;-60
2022/07/22 04:12:00;;;;;;;6.82;1.63;;;;;;;17.12;88.47;101740.34;20845041;28;20073;-59
2022/07/22 04:22:22;;;;;;;6.82;1.90;;;;;;;17.10;89.57;101742.28;20845503;28;20042;-59
2022/07/22 04:32:48;;;;;;;8.23;1.88;;;;;;;17.17;90.11;101754.00;20839493;28;20045;-60
2022/07/22 04:43:10;;;;;;;6.00;2.05;;;;;;;17.17;88.53;101760.13;20848955;28;20056;-61
2022/07/22 04:53:31;;;;;;;14.88;2.15;;;;;;;17.18;86.57;101751.25;20845602;28;20052;-61
2022/07/22 05:04:07;;;;;;;7.93;2.25;;;;;;;17.28;86.05;101761.91;20842876;28;20144;-61
2022/07/22 05:14:29;;;;;;;10.27;2.15;;;;;;;17.28;88.01;101773.31;20837928;28;20049;-61
2022/07/22 05:24:51;;;;;;;14.23;2.30;;;;;;;17.34;87.86;101764.94;20844909;28;20075;-61
2022/07/22 05:35:12;;;;;;;9.98;2.20;;;;;;;17.37;86.02;101762.09;20843589;28;20040;-61
2022/07/22 05:45:34;;;;;;;8.35;1.92;;;;;;;17.43;86.14;101766.88;20855961;28;20041;-61
2022/07/22 05:55:55;;;;;;;7.75;1.92;;;;;;;17.52;83.89;101767.00;20850232;28;20041;-61
2022/07/22 06:06:22;;;;;;;16.02;1.90;;;;;;;17.59;83.34;101764.72;20851643;28;20102;-61
2022/07/22 06:16:44;;;;;;;8.07;2.15;;;;;;;17.72;82.53;101773.34;20844945;28;20516;-61
2022/07/22 06:27:05;;;;;;;6.00;1.80;;;;;;;17.77;79.96;101777.31;20851938;28;20041;-62
2022/07/22 06:37:27;;;;;;;5.50;1.65;;;;;;;17.80;76.69;101786.75;20840772;28;20076;-61
2022/07/22 06:48:09;;;;;;;9.10;1.80;;;;;;;17.98;76.20;101793.22;20843383;28;20056;-61
2022/07/22 06:58:30;;;;;;;7.22;1.70;;;;;;;18.03;74.34;101789.25;20842392;28;20076;-61
2022/07/22 07:08:52;;;;;;;6.05;1.63;;;;;;;18.00;73.73;101788.66;20847587;28;20045;-61
2022/07/22 07:19:14;;;;;;;6.20;1.50;;;;;;;18.08;73.44;101796.78;20834095;28;20072;-61
2022/07/22 07:29:35;;;;;;;6.05;1.50;;;;;;;18.09;74.48;101793.19;20837573;28;20132;-60
2022/07/22 07:39:59;;;;;;;7.88;1.58;;;;;;;18.17;74.49;101791.63;20838144;28;20132;-61
2022/07/22 07:50:21;;;;;;;7.32;1.65;;;;;;;18.24;74.06;101795.50;20838739;28;20139;-61
2022/07/22 08:00:42;;;;;;;7.53;1.63;;;;;;;18.27;74.04;101807.59;20833636;28;20088;-61
2022/07/22 08:11:04;;;;;;;7.97;1.63;;;;;;;18.32;73.87;101810.72;20833987;28;20079;-59
2022/07/22 08:21:26;;;;;;;4.35;1.38;;;;;;;18.24;73.45;101813.13;20823728;28;20049;-61
2022/07/22 08:31:48;;;;;;;7.97;1.38;;;;;;;18.45;72.11;101821.00;20833564;28;20046;-59
2022/07/22 08:42:09;;;;;;;4.65;1.20;;;;;;;18.72;72.23;101813.44;20833126;28;20041;-61
2022/07/22 08:52:31;;;;;;;9.18;1.40;;;;;;;18.72;70.90;101810.81;20835946;28;20156;-61
2022/07/22 09:02:53;;;;;;;4.78;1.40;;;;;;;18.79;70.86;101816.41;20840030;28;20042;-61
2022/07/22 09:13:16;;;;;;;6.97;1.25;;;;;;;18.84;71.72;101825.63;20849894;28;20128;-59
2022/07/22 09:23:41;;;;;;;4.25;1.00;;;;;;;18.82;70.71;101832.84;20847520;28;20067;-60
2022/07/22 09:34:04;;;;;;;8.57;1.25;;;;;;;18.86;70.30;101829.00;20851509;28;20041;-60
2022/07/22 09:44:26;;;;;;;6.72;1.30;;;;;;;19.03;70.62;101844.28;20856709;28;20137;-60
2022/07/22 09:54:48;;;;;;;4.07;1.30;;;;;;;19.08;70.07;101844.72;20848145;28;20053;-59
2022/07/22 10:05:11;;;;;;;10.52;1.30;;;;;;;18.96;70.24;101843.09;20856921;28;20041;-60
2022/07/22 10:15:34;;;;;;;5.60;1.60;;;;;;;18.65;74.53;101846.59;20848534;28;20140;-61
2022/07/22 10:25:59;;;;;;;4.22;1.17;;;;;;;19.03;72.71;101846.94;20835887;28;20045;-60
2022/07/22 10:36:32;;;;;;;4.18;1.20;;;;;;;19.32;74.88;101852.44;20843394;28;20045;-59
2022/07/22 10:46:58;;;;;;;11.20;1.50;;;;;;;19.41;72.25;101841.91;20849999;28;20048;-61
2022/07/22 10:57:32;;;;;;;3.22;1.38;;;;;;;19.62;70.16;101840.09;20834534;28;20345;-60
2022/07/22 11:07:58;;;;;;;4.38;0.95;;;;;;;19.42;68.91;101828.59;20824931;28;20042;-61
2022/07/22 11:18:20;;;;;;;4.63;1.20;;;;;;;19.34;71.53;101822.28;20842298;28;20044;-60
2022/07/22 11:28:43;;;;;;;5.15;1.55;;;;;;;19.15;70.62;101816.00;20828811;28;20107;-61
2022/07/22 11:39:06;;;;;;;4.05;1.00;;;;;;;19.67;70.30;101811.41;20846058;28;20041;-61
2022/07/22 11:49:35;;;;;;;;;;;;;;;20.05;69.17;101795.72;20845432;28;20055;-60
2022/07/22 12:00:06;;;;;;;4.15;0.95;;;;;;;19.50;69.29;101804.94;20839642;28;20293;-61
2022/07/22 12:10:27;;;;;;;4.90;1.05;;;;;;;19.42;72.93;101788.06;20838678;28;20045;-60
2022/07/22 12:20:50;;;;;;;4.53;0.80;;;;;;;19.50;69.65;101793.53;20843876;28;20072;-61
2022/07/22 12:31:15;;;;;;;5.30;1.02;;;;;;;19.86;70.24;101790.31;20841313;28;20052;-61
2022/07/22 12:41:45;;;;;;;5.57;1.08;;;;;;;19.90;66.04;101800.50;20842385;28;20111;-60
2022/07/22 12:52:12;;;;;;;4.72;1.00;;;;;;;19.98;65.88;101806.00;20850403;28;20041;-62
2022/07/22 13:02:34;;;;;;;4.93;1.02;;;;;;;19.89;65.42;101795.34;20854156;28;20053;-61
2022/07/22 13:12:56;;;;;;;10.15;1.00;;;;;;;20.13;67.57;101795.88;20855347;28;20148;-61
2022/07/22 13:23:17;;;;;;;6.13;1.25;;;;;;;19.71;67.19;101794.31;20846247;28;20053;-61
2022/07/22 13:33:39;;;;;;;4.47;1.00;;;;;;;19.93;66.94;101780.88;20828742;28;20057;-61
2022/07/22 13:44:00;;;;;;;8.35;0.90;;;;;;;19.87;66.33;101786.72;20846260;28;20503;-61
2022/07/22 13:54:30;;;;;;;3.60;0.88;;;;;;;19.92;65.70;101784.50;20850152;28;20053;-62
2022/07/22 14:04:52;;;;;;;4.55;1.27;;;;;;;20.28;64.95;101766.22;20847054;28;20148;-61
2022/07/22 14:15:14;;;;;;;4.57;1.00;;;;;;;20.10;62.82;101778.44;20852716;28;20060;-61
2022/07/22 14:25:38;;;;;;;2.78;0.80;;;;;;;20.15;63.20;101776.25;20851333;28;20152;-62
2022/07/22 14:35:59;;;;;;;3.22;0.80;;;;;;;19.94;61.42;101766.69;20847484;28;20142;-62
2022/07/22 14:46:21;;;;;;;4.13;0.90;;;;;;;19.95;61.04;101763.03;20852830;28;20063;-61
2022/07/22 14:56:42;;;;;;;2.17;1.00;;;;;;;20.35;61.41;101758.56;20845174;28;20552;-61
2022/07/22 15:07:04;;;;;;;6.47;1.30;;;;;;;20.10;62.29;101756.41;20841534;28;20387;-61
2022/07/22 15:17:26;;;;;;;4.80;1.40;;;;;;;20.16;62.02;101758.53;20839222;28;20033;-61
2022/07/22 15:27:47;;;;;;;1.70;0.90;;;;;;;20.16;61.77;101755.88;20836985;28;20038;-61
2022/07/22 15:38:29;;;;;;;2.40;1.20;;;;;;;20.08;65.90;101753.91;20845370;28;20045;-61
2022/07/22 15:48:50;;;;;;;2.72;1.25;;;;;;;20.00;62.76;101747.63;20821254;28;20049;-60
2022/07/22 16:09:53;;;;;;;3.25;1.00;;;;;;;19.84;63.56;101745.47;20848419;28;20490;-61
2022/07/22 16:20:14;;;;;;;4.30;1.00;;;;;;;19.92;65.84;101742.97;20833063;28;20037;-61
2022/07/22 16:30:36;;;;;;;4.82;1.25;;;;;;;19.76;63.75;101741.84;20833839;28;20467;-61
2022/07/22 16:40:58;;;;;;;5.18;1.00;;;;;;;19.67;69.18;101726.75;20830686;28;20051;-61
2022/07/22 16:51:21;;;;;;;3.63;0.90;;;;;;;19.51;66.81;101711.41;20834130;28;20069;-60
2022/07/22 17:01:42;;;;;;;2.67;1.05;;;;;;;19.32;67.23;101729.00;20829422;28;20410;-60
2022/07/22 17:12:04;;;;;;;5.82;0.82;;;;;;;19.54;67.24;101726.16;20830391;28;20049;-60
2022/07/22 17:22:26;;;;;;;6.10;1.20;;;;;;;19.41;68.27;101714.97;20839233;28;20041;-60
2022/07/22 17:32:47;;;;;;;2.45;1.00;;;;;;;19.36;69.15;101696.00;20840543;28;20053;-60
2022/07/22 17:43:09;;;;;;;2.80;0.88;;;;;;;19.32;68.99;101705.19;20844806;28;20545;-60
2022/07/22 17:53:31;;;;;;;8.00;1.10;;;;;;;19.38;69.17;101695.91;20852754;28;20046;-60
2022/07/22 18:03:52;;;;;;;2.33;0.93;;;;;;;19.32;70.10;101684.03;20849173;28;20128;-60
2022/07/22 18:14:14;;;;;;;7.60;0.82;;;;;;;19.23;70.36;101690.13;20845282;28;20595;-60
2022/07/22 18:24:36;;;;;;;5.68;1.20;;;;;;;19.16;70.22;101682.84;20854244;28;20052;-62
2022/07/22 18:34:57;;;;;;;5.13;1.00;;;;;;;19.16;73.25;101678.41;20864037;28;20133;-60
2022/07/22 18:45:19;;;;;;;4.18;1.00;;;;;;;19.07;74.06;101679.16;20845415;28;20081;-60
2022/07/22 18:55:41;;;;;;;3.65;1.15;;;;;;;18.99;74.47;101692.19;20843365;28;20132;-61
2022/07/22 19:06:04;;;;;;;6.43;1.30;;;;;;;18.81;76.85;101683.19;20830066;28;20139;-61
2022/07/22 19:16:26;;;;;;;4.00;0.82;;;;;;;18.85;75.41;101694.34;20828827;28;20069;-60
2022/07/22 19:26:47;;;;;;;5.35;1.30;;;;;;;18.72;76.03;101699.84;20844495;28;20041;-60
2022/07/22 19:37:09;;;;;;;7.72;1.13;;;;;;;18.58;79.71;101686.09;20820019;28;20049;-60
2022/07/22 19:47:31;;;;;;;5.05;1.05;;;;;;;18.64;76.41;101702.28;20830398;28;20053;-61
2022/07/22 19:57:52;;;;;;;3.70;0.80;;;;;;;18.41;79.77;101711.28;20825071;28;20052;-60
2022/07/22 20:08:15;;;;;;;1.38;0.80;;;;;;;18.38;77.09;101694.88;20830006;28;20047;-60
2022/07/22 20:18:36;;;;;;;4.82;0.95;;;;;;;18.51;76.54;101696.34;20821871;28;20068;-59
2022/07/22 20:29:00;;;;;;;6.68;0.90;;;;;;;18.50;78.80;101694.66;20830828;28;20505;-59
2022/07/22 20:39:22;;;;;;;5.07;1.10;;;;;;;18.54;75.15;101685.53;20822601;28;20052;-60
2022/07/22 20:49:44;;;;;;;3.90;0.95;;;;;;;18.38;78.71;101677.22;20837772;28;20057;-59
2022/07/22 21:00:07;;;;;;;1.13;0.73;;;;;;;18.17;78.29;101674.66;20837885;28;20506;-60
2022/07/22 21:10:29;;;;;;;4.65;1.15;;;;;;;18.30;81.18;101683.25;20860400;28;20135;-60
2022/07/22 21:20:51;;;;;;;2.45;0.90;;;;;;;18.30;81.07;101681.44;20855538;28;20043;-60
2022/07/22 21:31:13;;;;;;;4.85;1.20;;;;;;;18.20;83.31;101663.81;20859337;28;20038;-60
2022/07/22 21:41:36;;;;;;;4.95;1.33;;;;;;;18.07;81.85;101648.19;20854519;28;20056;-59
2022/07/22 21:51:57;;;;;;;5.32;1.30;;;;;;;17.97;82.81;101656.97;20840845;28;20053;-59
2022/07/22 22:02:19;;;;;;;10.73;1.40;;;;;;;17.95;82.09;101664.16;20852225;28;20054;-59
2022/07/22 22:12:41;;;;;;;5.30;1.20;;;;;;;17.63;83.44;101664.16;20852918;28;20103;-59
2022/07/22 22:23:02;;;;;;;3.25;1.05;;;;;;;17.66;86.40;101657.78;20849215;28;20047;-59
2022/07/22 22:33:27;;;;;;;4.65;1.20;;;;;;;17.50;83.94;101675.78;20849797;28;20048;-59
2022/07/22 22:43:48;;;;;;;4.18;1.15;;;;;;;17.51;85.20;101674.81;20851631;28;20466;-59
2022/07/22 22:54:10;;;;;;;9.02;1.23;;;;;;;17.37;86.00;101685.63;20847970;28;20061;-59
2022/07/22 23:04:32;;;;;;;8.15;1.20;;;;;;;17.39;86.70;101686.34;20859265;28;20041;-59
2022/07/22 23:14:53;;;;;;;2.95;1.20;;;;;;;17.45;85.91;101667.44;20844754;28;20059;-60
2022/07/22 23:25:15;;;;;;;5.65;1.20;;;;;;;17.40;83.88;101693.31;20843562;28;20041;-59
2022/07/22 23:35:37;;;;;;;4.28;1.27;;;;;;;17.47;83.39;101686.56;20839356;28;20041;-59
2022/07/22 23:45:59;;;;;;;2.90;1.20;;;;;;;17.29;85.20;101684.53;20837339;28;20128;-59
2022/07/22 23:56:20;;;;;;;6.30;1.65;;;;;;;17.43;83.30;101677.25;20848894;28;20506;-58
